createdAt,value
2022-09-28T00:00:08.028Z,12.00
2022-09-28T00:01:08.581Z,11.60
2022-09-28T00:02:09.246Z,11.70
2022-09-28T00:03:09.979Z,11.20
2022-09-28T00:04:10.562Z,12.40
2022-09-28T00:05:11.139Z,12.10
2022-09-28T00:06:11.695Z,11.30
2022-09-28T00:07:12.253Z,11.00
2022-09-28T00:08:13.142Z,11.40
2022-09-28T00:09:13.795Z,11.20
2022-09-28T00:10:14.388Z,11.20
2022-09-28T00:11:14.944Z,11.90
2022-09-28T00:12:15.495Z,11.50
2022-09-28T00:13:16.114Z,11.20
2022-09-28T00:14:16.673Z,11.70
2022-09-28T00:15:17.226Z,11.60
2022-09-28T00:16:17.837Z,11.40
2022-09-28T00:17:18.427Z,11.00
2022-09-28T00:18:19.113Z,11.00
2022-09-28T00:19:19.663Z,10.60
2022-09-28T00:20:20.231Z,10.80
2022-09-28T00:21:20.774Z,10.60
2022-09-28T00:22:21.324Z,11.80
2022-09-28T00:23:21.945Z,11.70
2022-09-28T00:24:27.324Z,11.20
2022-09-28T00:25:23.404Z,11.80
2022-09-28T00:26:23.944Z,11.70
2022-09-28T00:27:24.498Z,11.40
2022-09-28T00:28:25.090Z,11.70
2022-09-28T00:29:25.630Z,11.60
2022-09-28T00:30:26.175Z,11.20
2022-09-28T00:31:26.796Z,11.40
2022-09-28T00:32:27.373Z,11.90
2022-09-28T00:33:27.992Z,11.30
2022-09-28T00:34:28.544Z,11.50
2022-09-28T00:35:29.111Z,11.60
2022-09-28T00:36:29.654Z,11.80
2022-09-28T00:37:30.207Z,11.90
2022-09-28T00:38:30.792Z,11.90
2022-09-28T00:39:31.335Z,11.40
2022-09-28T00:40:32.008Z,11.80
2022-09-28T00:41:32.589Z,12.20
2022-09-28T00:42:33.148Z,13.60
2022-09-28T00:43:33.919Z,12.90
2022-09-28T00:44:34.474Z,11.60
2022-09-28T00:45:35.148Z,11.90
2022-09-28T00:46:35.748Z,11.90
2022-09-28T00:47:36.297Z,12.10
2022-09-28T00:48:36.947Z,12.70
2022-09-28T00:49:37.503Z,12.60
2022-09-28T00:50:38.080Z,11.30
2022-09-28T00:51:38.631Z,12.00
2022-09-28T00:52:39.176Z,11.50
2022-09-28T00:53:39.749Z,11.40
2022-09-28T00:54:40.300Z,11.30
2022-09-28T00:55:40.846Z,11.80
2022-09-28T00:56:41.393Z,11.30
2022-09-28T00:57:41.944Z,12.00
2022-09-28T00:58:42.598Z,11.50
2022-09-28T00:59:43.162Z,12.00
2022-09-28T01:00:43.765Z,12.10
2022-09-28T01:01:44.440Z,12.00
2022-09-28T01:02:45.061Z,11.60
2022-09-28T01:03:45.680Z,11.90
2022-09-28T01:04:46.276Z,12.20
2022-09-28T01:05:46.906Z,11.80
2022-09-28T01:06:47.450Z,12.50
2022-09-28T01:07:47.992Z,13.10
2022-09-28T01:08:48.568Z,12.90
2022-09-28T01:09:49.111Z,12.60
2022-09-28T01:10:49.657Z,12.80
2022-09-28T01:11:50.209Z,11.60
2022-09-28T01:12:50.761Z,13.00
2022-09-28T01:13:51.481Z,13.20
2022-09-28T01:14:52.027Z,13.00
2022-09-28T01:15:52.697Z,13.20
2022-09-28T01:16:53.309Z,13.70
2022-09-28T01:17:53.862Z,14.30
2022-09-28T01:18:54.503Z,14.40
2022-09-28T01:19:55.059Z,15.00
2022-09-28T01:20:55.627Z,14.70
2022-09-28T01:21:56.169Z,15.20
2022-09-28T01:22:56.716Z,15.70
2022-09-28T01:23:57.326Z,15.30
2022-09-28T01:24:57.876Z,15.40
2022-09-28T01:25:58.423Z,15.80
2022-09-28T01:26:58.981Z,15.90
2022-09-28T01:27:59.537Z,15.10
2022-09-28T01:29:00.138Z,15.10
2022-09-28T01:30:00.691Z,15.30
2022-09-28T01:31:01.233Z,15.40
2022-09-28T01:32:01.876Z,15.40
2022-09-28T01:33:02.483Z,15.20
2022-09-28T01:34:03.067Z,14.80
2022-09-28T01:35:03.626Z,15.20
2022-09-28T01:36:04.209Z,15.50
2022-09-28T01:37:04.764Z,15.40
2022-09-28T01:38:05.313Z,15.40
2022-09-28T01:39:05.894Z,14.70
2022-09-28T01:40:06.446Z,15.30
2022-09-28T01:41:07.008Z,15.30
2022-09-28T01:42:07.556Z,15.70
2022-09-28T01:43:08.112Z,15.50
2022-09-28T01:44:08.870Z,15.90
2022-09-28T01:45:09.419Z,14.80
2022-09-28T01:46:10.060Z,15.30
2022-09-28T01:47:10.672Z,14.90
2022-09-28T01:48:11.223Z,14.70
2022-09-28T01:49:11.894Z,15.40
2022-09-28T01:50:12.443Z,15.40
2022-09-28T01:51:13.022Z,14.50
2022-09-28T01:52:13.567Z,14.40
2022-09-28T01:53:14.117Z,14.10
2022-09-28T01:54:14.712Z,15.20
2022-09-28T01:55:15.319Z,14.30
2022-09-28T01:56:15.865Z,14.10
2022-09-28T01:57:16.419Z,14.80
2022-09-28T01:58:16.971Z,14.70
2022-09-28T01:59:17.828Z,14.20
2022-09-28T02:00:18.478Z,14.40
2022-09-28T02:01:19.042Z,14.60
2022-09-28T02:02:19.749Z,14.00
2022-09-28T02:03:20.355Z,15.50
2022-09-28T02:04:20.949Z,15.30
2022-09-28T02:05:21.537Z,14.90
2022-09-28T02:06:22.102Z,14.70
2022-09-28T02:07:22.652Z,15.20
2022-09-28T02:08:23.201Z,15.70
2022-09-28T02:09:23.775Z,15.40
2022-09-28T02:10:24.324Z,15.30
2022-09-28T02:11:24.866Z,15.50
2022-09-28T02:12:25.417Z,15.20
2022-09-28T02:13:25.974Z,15.60
2022-09-28T02:14:26.591Z,15.20
2022-09-28T02:15:27.154Z,14.80
2022-09-28T02:16:27.752Z,15.20
2022-09-28T02:17:28.311Z,15.40
2022-09-28T02:18:28.865Z,14.10
2022-09-28T02:19:29.470Z,14.90
2022-09-28T02:20:30.022Z,14.70
2022-09-28T02:21:30.608Z,15.10
2022-09-28T02:22:31.164Z,15.10
2022-09-28T02:23:31.704Z,14.40
2022-09-28T02:24:32.486Z,14.50
2022-09-28T02:25:33.035Z,15.00
2022-09-28T02:26:33.595Z,14.90
2022-09-28T02:27:34.139Z,15.20
2022-09-28T02:28:34.690Z,14.30
2022-09-28T02:29:35.259Z,14.50
2022-09-28T02:30:35.820Z,15.30
2022-09-28T02:31:36.421Z,15.10
2022-09-28T02:32:37.000Z,15.30
2022-09-28T02:33:37.557Z,15.00
2022-09-28T02:34:38.141Z,14.80
2022-09-28T02:35:38.692Z,15.60
2022-09-28T02:36:39.263Z,15.80
2022-09-28T02:37:39.811Z,15.90
2022-09-28T02:38:40.369Z,15.60
2022-09-28T02:39:40.955Z,15.80
2022-09-28T02:40:41.554Z,16.00
2022-09-28T02:41:42.129Z,16.40
2022-09-28T02:42:42.677Z,15.50
2022-09-28T02:43:43.234Z,15.30
2022-09-28T02:44:44.005Z,16.30
2022-09-28T02:45:44.641Z,16.10
2022-09-28T02:46:45.232Z,15.70
2022-09-28T02:47:45.770Z,15.80
2022-09-28T02:48:55.786Z,15.80
2022-09-28T02:49:47.290Z,15.90
2022-09-28T02:50:47.839Z,15.30
2022-09-28T02:51:48.413Z,16.20
2022-09-28T02:52:48.964Z,16.20
2022-09-28T02:53:49.527Z,15.60
2022-09-28T02:54:50.171Z,16.60
2022-09-28T02:55:50.721Z,15.40
2022-09-28T02:56:51.272Z,15.50
2022-09-28T02:57:51.817Z,16.90
2022-09-28T02:58:52.367Z,15.60
2022-09-28T02:59:52.991Z,15.60
2022-09-28T03:00:53.606Z,15.70
2022-09-28T03:01:54.286Z,16.70
2022-09-28T03:02:54.888Z,16.30
2022-09-28T03:03:55.517Z,16.00
2022-09-28T03:04:56.228Z,15.90
2022-09-28T03:05:56.775Z,17.00
2022-09-28T03:06:57.353Z,15.20
2022-09-28T03:07:57.910Z,15.80
2022-09-28T03:08:58.459Z,15.30
2022-09-28T03:09:59.044Z,15.20
2022-09-28T03:10:59.586Z,14.90
2022-09-28T03:12:00.129Z,15.80
2022-09-28T03:13:00.668Z,15.40
2022-09-28T03:14:01.215Z,15.40
2022-09-28T03:15:01.840Z,15.00
2022-09-28T03:16:02.449Z,14.20
2022-09-28T03:17:03.048Z,14.10
2022-09-28T03:18:03.601Z,15.20
2022-09-28T03:19:04.139Z,14.20
2022-09-28T03:20:04.787Z,14.70
2022-09-28T03:21:05.342Z,14.20
2022-09-28T03:22:05.912Z,14.80
2022-09-28T03:23:23.858Z,13.70
2022-09-28T03:24:07.374Z,13.80
2022-09-28T03:25:07.945Z,14.00
2022-09-28T03:26:08.487Z,13.40
2022-09-28T03:27:09.094Z,13.30
2022-09-28T03:28:09.638Z,13.60
2022-09-28T03:29:10.290Z,14.20
2022-09-28T03:30:10.943Z,14.30
2022-09-28T03:31:11.508Z,16.80
2022-09-28T03:32:12.077Z,13.50
2022-09-28T03:33:12.629Z,13.50
2022-09-28T03:34:13.179Z,14.20
2022-09-28T03:35:13.754Z,14.10
2022-09-28T03:36:14.315Z,14.80
2022-09-28T03:37:14.899Z,14.60
2022-09-28T03:38:15.451Z,14.00
2022-09-28T03:39:16.090Z,14.50
2022-09-28T03:40:16.800Z,14.30
2022-09-28T03:41:17.387Z,14.40
2022-09-28T03:42:17.938Z,13.80
2022-09-28T03:43:18.486Z,14.70
2022-09-28T03:44:19.027Z,14.20
2022-09-28T03:45:19.693Z,14.80
2022-09-28T03:46:20.307Z,14.20
2022-09-28T03:47:20.894Z,14.00
2022-09-28T03:48:24.514Z,14.20
2022-09-28T03:49:22.382Z,14.60
2022-09-28T03:50:23.039Z,15.00
2022-09-28T03:51:23.587Z,14.40
2022-09-28T03:52:24.163Z,14.60
2022-09-28T03:53:24.666Z,14.40
2022-09-28T03:54:25.217Z,14.10
2022-09-28T03:55:25.796Z,13.30
2022-09-28T03:56:26.353Z,13.80
2022-09-28T03:57:26.874Z,14.20
2022-09-28T03:58:27.434Z,14.10
2022-09-28T03:59:27.936Z,14.10
2022-09-28T04:00:28.598Z,12.20
2022-09-28T04:01:29.162Z,12.90
2022-09-28T04:02:29.804Z,12.70
2022-09-28T04:03:30.344Z,12.60
2022-09-28T04:04:30.839Z,12.30
2022-09-28T04:05:31.845Z,13.20
2022-09-28T04:06:32.335Z,12.90
2022-09-28T04:07:32.851Z,12.60
2022-09-28T04:08:33.351Z,12.60
2022-09-28T04:09:33.862Z,12.30
2022-09-28T04:10:34.388Z,13.00
2022-09-28T04:11:53.136Z,12.60
2022-09-28T04:12:35.747Z,12.00
2022-09-28T04:13:36.248Z,11.80
2022-09-28T04:14:36.753Z,12.30
2022-09-28T04:15:37.267Z,11.90
2022-09-28T04:16:37.821Z,12.10
2022-09-28T04:17:40.277Z,12.40
2022-09-28T04:18:38.887Z,12.10
2022-09-28T04:19:39.384Z,11.90
2022-09-28T04:20:39.983Z,12.10
2022-09-28T04:21:40.480Z,13.10
2022-09-28T04:22:41.495Z,12.10
2022-09-28T04:23:41.997Z,12.20
2022-09-28T04:24:42.499Z,12.20
2022-09-28T04:25:43.027Z,11.60
2022-09-28T04:26:43.521Z,12.80
2022-09-28T04:27:45.161Z,12.70
2022-09-28T04:28:44.960Z,13.10
2022-09-28T04:29:45.457Z,12.80
2022-09-28T04:30:46.757Z,13.20
2022-09-28T04:31:47.309Z,11.90
2022-09-28T04:32:47.848Z,12.30
2022-09-28T04:33:48.336Z,13.10
2022-09-28T04:34:49.336Z,12.40
2022-09-28T04:35:49.867Z,13.00
2022-09-28T04:36:50.369Z,12.60
2022-09-28T04:37:50.889Z,12.40
2022-09-28T04:38:53.625Z,13.40
2022-09-28T04:39:52.285Z,13.20
2022-09-28T04:40:53.362Z,12.50
2022-09-28T04:41:53.387Z,13.30
2022-09-28T04:42:54.699Z,13.70
2022-09-28T04:43:54.723Z,13.40
2022-09-28T04:44:55.212Z,13.20
2022-09-28T04:45:56.415Z,13.80
2022-09-28T04:46:56.659Z,13.70
2022-09-28T04:47:58.717Z,14.10
2022-09-28T04:48:57.896Z,14.10
2022-09-28T04:49:58.388Z,14.30
2022-09-28T04:50:58.939Z,14.10
2022-09-28T04:51:59.431Z,13.20
2022-09-28T04:53:00.450Z,11.90
2022-09-28T04:54:00.991Z,11.70
2022-09-28T04:55:01.511Z,12.00
2022-09-28T04:56:02.073Z,12.30
2022-09-28T04:57:10.216Z,12.50
2022-09-28T04:58:03.256Z,13.40
2022-09-28T04:59:03.766Z,13.90
2022-09-28T05:00:04.272Z,14.50
2022-09-28T05:01:05.101Z,15.30
2022-09-28T05:02:07.884Z,14.70
2022-09-28T05:03:10.852Z,14.40
2022-09-28T05:04:07.196Z,15.70
2022-09-28T05:05:08.809Z,15.10
2022-09-28T05:06:24.727Z,15.80
2022-09-28T05:07:09.003Z,16.00
2022-09-28T05:08:10.643Z,16.70
2022-09-28T05:09:10.469Z,16.30
2022-09-28T05:10:11.020Z,17.00
2022-09-28T05:11:37.025Z,16.70
2022-09-28T05:12:12.448Z,17.20
2022-09-28T05:13:12.970Z,15.90
2022-09-28T05:14:24.473Z,16.20
2022-09-28T05:15:14.384Z,16.00
2022-09-28T05:16:16.184Z,16.70
2022-09-28T05:17:15.549Z,15.80
2022-09-28T05:18:27.889Z,15.80
2022-09-28T05:19:17.947Z,16.20
2022-09-28T05:20:19.759Z,16.10
2022-09-28T05:21:20.962Z,15.80
2022-09-28T05:22:20.330Z,15.90
2022-09-28T05:23:30.068Z,15.80
2022-09-28T05:24:30.870Z,15.40
2022-09-28T05:25:22.163Z,15.10
2022-09-28T05:26:22.656Z,14.70
2022-09-28T05:27:23.682Z,15.30
2022-09-28T05:28:24.192Z,15.10
2022-09-28T05:29:25.803Z,14.90
2022-09-28T05:30:25.523Z,15.20
2022-09-28T05:31:26.075Z,14.90
2022-09-28T05:32:26.623Z,14.50
2022-09-28T05:33:27.121Z,14.50
2022-09-28T05:34:27.619Z,15.00
2022-09-28T05:35:28.117Z,14.40
2022-09-28T05:36:28.626Z,14.40
2022-09-28T05:37:29.153Z,14.70
2022-09-28T05:38:29.656Z,14.90
2022-09-28T05:39:30.176Z,14.60
2022-09-28T05:40:30.844Z,15.30
2022-09-28T05:41:31.370Z,15.70
2022-09-28T05:42:31.897Z,15.00
2022-09-28T05:43:32.389Z,14.60
2022-09-28T05:44:32.883Z,14.70
2022-09-28T05:45:33.476Z,14.40
2022-09-28T05:46:34.029Z,15.20
2022-09-28T05:47:34.614Z,15.20
2022-09-28T05:48:35.123Z,15.20
2022-09-28T05:49:35.720Z,15.40
2022-09-28T05:50:36.238Z,15.70
2022-09-28T05:51:36.739Z,15.10
2022-09-28T05:52:37.263Z,15.80
2022-09-28T05:53:37.763Z,15.70
2022-09-28T05:54:38.290Z,15.40
2022-09-28T05:55:38.815Z,15.30
2022-09-28T05:56:39.318Z,15.10
2022-09-28T05:57:39.920Z,15.80
2022-09-28T05:58:40.429Z,15.30
2022-09-28T05:59:42.668Z,15.40
2022-09-28T06:00:42.178Z,15.30
2022-09-28T06:01:42.840Z,15.30
2022-09-28T06:02:43.785Z,15.90
2022-09-28T06:03:44.282Z,16.60
2022-09-28T06:04:45.127Z,16.10
2022-09-28T06:05:45.655Z,16.50
2022-09-28T06:06:46.145Z,16.70
2022-09-28T06:07:46.707Z,18.10
2022-09-28T06:08:47.319Z,16.30
2022-09-28T06:09:47.849Z,15.80
2022-09-28T06:10:48.356Z,16.40
2022-09-28T06:11:49.983Z,15.90
2022-09-28T06:12:49.708Z,15.90
2022-09-28T06:13:50.206Z,16.10
2022-09-28T06:14:50.707Z,16.60
2022-09-28T06:15:51.203Z,16.40
2022-09-28T06:16:51.746Z,16.40
2022-09-28T06:17:52.481Z,16.50
2022-09-28T06:19:03.284Z,17.30
2022-09-28T06:19:53.766Z,16.60
2022-09-28T06:20:54.262Z,16.50
2022-09-28T06:21:54.761Z,16.30
2022-09-28T06:22:55.299Z,16.20
2022-09-28T06:23:55.795Z,16.20
2022-09-28T06:24:56.309Z,16.40
2022-09-28T06:26:00.709Z,16.60
2022-09-28T06:27:00.403Z,16.00
2022-09-28T06:27:58.455Z,15.90
2022-09-28T06:28:58.950Z,16.60
2022-09-28T06:29:59.448Z,16.70
2022-09-28T06:31:00.046Z,16.00
2022-09-28T06:32:00.594Z,16.90
2022-09-28T06:33:01.120Z,16.10
2022-09-28T06:34:01.607Z,18.50
2022-09-28T06:35:02.112Z,17.60
2022-09-28T06:36:03.109Z,17.90
2022-09-28T06:37:03.596Z,17.30
2022-09-28T06:38:04.137Z,17.10
2022-09-28T06:39:04.637Z,16.60
2022-09-28T06:40:05.241Z,16.20
2022-09-28T06:41:05.807Z,15.60
2022-09-28T06:42:06.362Z,16.30
2022-09-28T06:43:08.947Z,16.20
2022-09-28T06:44:07.590Z,16.30
2022-09-28T06:45:08.098Z,17.90
2022-09-28T06:46:08.722Z,17.40
2022-09-28T06:47:09.274Z,17.70
2022-09-28T06:48:10.841Z,16.70
2022-09-28T06:49:10.338Z,17.10
2022-09-28T06:50:10.832Z,16.90
2022-09-28T06:51:12.440Z,15.70
2022-09-28T06:52:13.199Z,15.30
2022-09-28T06:53:12.724Z,15.50
2022-09-28T06:54:13.218Z,16.00
2022-09-28T06:55:14.237Z,17.40
2022-09-28T06:56:14.736Z,16.60
2022-09-28T06:57:15.234Z,17.60
2022-09-28T06:58:16.265Z,17.20
2022-09-28T06:59:20.873Z,17.10
2022-09-28T07:00:17.619Z,16.60
2022-09-28T07:01:18.197Z,17.10
2022-09-28T07:02:21.494Z,16.50
2022-09-28T07:03:19.579Z,16.70
2022-09-28T07:04:21.535Z,16.30
2022-09-28T07:05:21.046Z,16.40
2022-09-28T07:06:24.572Z,15.90
2022-09-28T07:07:22.576Z,15.80
2022-09-28T07:08:23.133Z,15.50
2022-09-28T07:09:33.154Z,15.80
2022-09-28T07:10:24.516Z,15.70
2022-09-28T07:11:25.349Z,15.80
2022-09-28T07:12:25.846Z,15.90
2022-09-28T07:13:48.840Z,15.50
2022-09-28T07:14:44.392Z,16.10
2022-09-28T07:15:28.579Z,16.30
2022-09-28T07:16:48.826Z,16.20
2022-09-28T07:17:30.349Z,16.20
2022-09-28T07:18:30.669Z,16.50
2022-09-28T07:19:31.229Z,15.50
2022-09-28T07:20:33.309Z,16.10
2022-09-28T07:21:32.749Z,16.10
2022-09-28T07:22:42.433Z,16.60
2022-09-28T07:23:43.577Z,16.10
2022-09-28T07:24:35.048Z,17.30
2022-09-28T07:25:35.643Z,17.00
2022-09-28T07:26:36.243Z,17.00
2022-09-28T07:27:58.750Z,15.80
2022-09-28T07:28:51.445Z,16.50
2022-09-28T07:29:38.740Z,17.10
2022-09-28T07:30:39.507Z,17.30
2022-09-28T07:31:40.068Z,17.70
2022-09-28T07:32:41.067Z,17.80
2022-09-28T07:33:41.775Z,18.00
2022-09-28T07:36:32.249Z,17.60
2022-09-28T07:37:34.874Z,17.00
2022-09-28T07:38:36.345Z,17.00
2022-09-28T07:39:34.434Z,16.70
2022-09-28T07:40:35.276Z,17.00
2022-09-28T07:41:35.807Z,16.60
2022-09-28T07:42:36.449Z,17.50
2022-09-28T07:43:40.158Z,16.90
2022-09-28T07:44:47.972Z,16.40
2022-09-28T07:45:38.770Z,16.90
2022-09-28T07:46:40.532Z,16.10
2022-09-28T07:47:40.084Z,15.80
2022-09-28T07:48:40.692Z,16.20
2022-09-28T07:49:41.299Z,16.00
2022-09-28T07:50:41.825Z,15.70
2022-09-28T07:51:42.321Z,15.70
2022-09-28T07:52:43.176Z,16.10
2022-09-28T07:53:43.723Z,16.50
2022-09-28T07:54:44.248Z,17.30
2022-09-28T07:55:46.587Z,19.90
2022-09-28T07:56:45.609Z,19.90
2022-09-28T07:57:46.106Z,23.60
2022-09-28T07:58:46.619Z,25.50
2022-09-28T07:59:47.371Z,24.30
2022-09-28T08:00:47.924Z,24.50
2022-09-28T08:01:48.454Z,25.00
2022-09-28T08:02:49.632Z,24.00
2022-09-28T08:03:49.637Z,22.80
2022-09-28T08:04:56.159Z,22.90
2022-09-28T08:06:04.376Z,23.30
2022-09-28T08:07:06.758Z,21.10
2022-09-28T08:07:52.426Z,19.50
2022-09-28T08:08:57.000Z,18.40
2022-09-28T08:09:54.594Z,20.10
2022-09-28T08:11:54.290Z,17.50
2022-09-28T08:13:02.163Z,17.20
2022-09-28T08:13:56.700Z,16.50
2022-09-28T08:15:01.678Z,16.70
2022-09-28T08:15:58.380Z,16.80
2022-09-28T08:16:58.932Z,16.70
2022-09-28T08:18:02.932Z,16.40
2022-09-28T08:19:00.019Z,16.60
2022-09-28T08:20:01.032Z,16.70
2022-09-28T08:21:01.167Z,16.80
2022-09-28T08:22:01.660Z,16.20
2022-09-28T08:23:02.671Z,16.20
2022-09-28T08:24:03.286Z,17.30
2022-09-28T08:25:03.812Z,17.20
2022-09-28T08:26:04.311Z,16.40
2022-09-28T08:27:04.869Z,15.70
2022-09-28T08:28:05.399Z,16.90
2022-09-28T08:29:05.932Z,15.70
2022-09-28T08:30:06.511Z,16.50
2022-09-28T08:31:07.210Z,16.00
2022-09-28T08:32:07.814Z,16.40
2022-09-28T08:33:08.407Z,16.40
2022-09-28T08:34:08.941Z,16.10
2022-09-28T08:35:09.569Z,16.40
2022-09-28T08:36:10.124Z,16.50
2022-09-28T08:37:10.662Z,16.50
2022-09-28T08:38:11.195Z,15.50
2022-09-28T08:39:11.963Z,16.60
2022-09-28T08:40:12.791Z,16.80
2022-09-28T08:41:13.340Z,17.30
2022-09-28T08:42:13.891Z,16.20
2022-09-28T08:43:14.425Z,16.70
2022-09-28T08:44:14.991Z,16.80
2022-09-28T08:45:15.923Z,16.50
2022-09-28T08:46:16.740Z,16.20
2022-09-28T08:47:17.262Z,16.90
2022-09-28T08:48:17.781Z,16.80
2022-09-28T08:49:25.328Z,16.60
2022-09-28T08:50:19.314Z,16.20
2022-09-28T08:51:19.815Z,16.50
2022-09-28T08:52:20.313Z,16.40
2022-09-28T08:53:20.829Z,16.40
2022-09-28T08:54:21.824Z,16.00
2022-09-28T08:55:22.813Z,15.60
2022-09-28T08:56:23.305Z,15.60
2022-09-28T08:57:23.829Z,15.80
2022-09-28T08:58:24.331Z,15.40
2022-09-28T08:59:24.823Z,16.50
2022-09-28T09:00:26.046Z,16.40
2022-09-28T09:01:26.730Z,15.50
2022-09-28T09:02:27.469Z,15.30
2022-09-28T09:03:27.997Z,16.00
2022-09-28T09:04:28.485Z,16.20
2022-09-28T09:05:29.021Z,16.60
2022-09-28T09:06:29.513Z,15.80
2022-09-28T09:07:30.512Z,15.90
2022-09-28T09:08:31.013Z,16.60
2022-09-28T09:09:31.547Z,15.70
2022-09-28T09:10:32.083Z,16.70
2022-09-28T09:11:32.592Z,16.40
2022-09-28T09:12:33.136Z,17.10
2022-09-28T09:13:33.630Z,16.80
2022-09-28T09:14:34.121Z,16.30
2022-09-28T09:15:34.672Z,17.00
2022-09-28T09:16:35.202Z,16.60
2022-09-28T09:17:35.747Z,15.90
2022-09-28T09:18:36.242Z,15.90
2022-09-28T09:19:36.736Z,17.60
2022-09-28T09:20:37.269Z,17.60
2022-09-28T09:21:37.765Z,17.60
2022-09-28T09:22:38.268Z,17.20
2022-09-28T09:23:38.780Z,17.50
2022-09-28T09:24:39.284Z,17.30
2022-09-28T09:25:39.804Z,17.50
2022-09-28T09:26:40.295Z,17.30
2022-09-28T09:27:41.382Z,17.50
2022-09-28T09:28:41.887Z,17.20
2022-09-28T09:29:42.395Z,17.30
2022-09-28T09:30:42.973Z,17.10
2022-09-28T09:31:43.514Z,17.00
2022-09-28T09:32:44.014Z,17.40
2022-09-28T09:33:44.530Z,17.60
2022-09-28T09:34:45.053Z,18.10
2022-09-28T09:35:45.590Z,17.50
2022-09-28T09:36:46.100Z,18.30
2022-09-28T09:37:46.594Z,18.60
2022-09-28T09:38:47.089Z,19.00
2022-09-28T09:39:47.724Z,18.20
2022-09-28T09:40:48.299Z,19.00
2022-09-28T09:41:48.856Z,21.00
2022-09-28T09:42:49.381Z,25.00
2022-09-28T09:43:50.057Z,25.00
2022-09-28T09:44:50.575Z,27.00
2022-09-28T09:45:51.133Z,28.80
2022-09-28T09:46:51.657Z,29.10
2022-09-28T09:47:52.146Z,28.90
2022-09-28T09:48:52.641Z,30.50
2022-09-28T09:49:53.147Z,30.50
2022-09-28T09:50:53.730Z,34.10
2022-09-28T09:51:58.824Z,33.80
2022-09-28T09:52:54.924Z,32.60
2022-09-28T09:53:55.758Z,33.30
2022-09-28T09:54:56.327Z,34.30
2022-09-28T09:55:56.927Z,32.20
2022-09-28T09:56:57.426Z,33.00
2022-09-28T09:57:57.957Z,33.00
2022-09-28T09:58:58.466Z,34.60
2022-09-28T09:59:58.981Z,34.20
2022-09-28T10:00:59.689Z,32.20
2022-09-28T10:02:00.297Z,34.20
2022-09-28T10:03:00.846Z,35.50
2022-09-28T10:04:01.389Z,39.90
2022-09-28T10:05:01.896Z,36.40
2022-09-28T10:06:02.427Z,39.20
2022-09-28T10:07:02.927Z,38.30
2022-09-28T10:08:03.419Z,37.40
2022-09-28T10:09:09.404Z,38.10
2022-09-28T10:10:06.363Z,35.90
2022-09-28T10:11:05.407Z,37.60
2022-09-28T10:12:05.916Z,36.40
2022-09-28T10:13:06.468Z,34.80
2022-09-28T10:14:06.972Z,35.90
2022-09-28T10:15:07.477Z,36.50
2022-09-28T10:16:08.517Z,38.50
2022-09-28T10:17:11.344Z,36.80
2022-09-28T10:18:23.108Z,34.30
2022-09-28T10:19:10.399Z,35.70
2022-09-28T10:20:10.910Z,34.90
2022-09-28T10:21:11.438Z,35.80
2022-09-28T10:22:11.942Z,35.90
2022-09-28T10:23:12.444Z,35.00
2022-09-28T10:24:12.942Z,35.00
2022-09-28T10:25:13.455Z,34.00
2022-09-28T10:26:13.998Z,34.80
2022-09-28T10:27:14.494Z,32.90
2022-09-28T10:28:15.015Z,33.40
2022-09-28T10:29:15.655Z,32.60
2022-09-28T10:30:16.210Z,32.00
2022-09-28T10:31:16.742Z,33.60
2022-09-28T10:32:17.235Z,32.50
2022-09-28T10:33:17.736Z,33.20
2022-09-28T10:34:18.351Z,30.30
2022-09-28T10:35:18.905Z,31.10
2022-09-28T10:36:19.432Z,32.00
2022-09-28T10:37:19.931Z,31.30
2022-09-28T10:38:20.427Z,32.40
2022-09-28T10:39:20.935Z,33.70
2022-09-28T10:40:21.489Z,32.10
2022-09-28T10:41:22.072Z,32.20
2022-09-28T10:42:22.575Z,32.80
2022-09-28T10:43:23.095Z,32.20
2022-09-28T10:44:23.600Z,31.90
2022-09-28T10:45:24.099Z,32.90
2022-09-28T10:46:24.735Z,29.70
2022-09-28T10:47:25.275Z,30.70
2022-09-28T10:48:25.770Z,29.00
2022-09-28T10:49:26.273Z,29.70
2022-09-28T10:50:26.779Z,28.50
2022-09-28T10:51:27.425Z,27.90
2022-09-28T10:52:27.919Z,27.80
2022-09-28T10:53:28.422Z,28.60
2022-09-28T10:54:28.917Z,27.70
2022-09-28T10:55:29.414Z,25.70
2022-09-28T10:56:29.939Z,26.70
2022-09-28T10:57:30.436Z,26.00
2022-09-28T10:58:30.956Z,25.60
2022-09-28T10:59:31.462Z,26.30
2022-09-28T11:00:31.982Z,27.00
2022-09-28T11:01:32.724Z,29.60
2022-09-28T11:02:35.927Z,26.50
2022-09-28T11:03:33.797Z,27.70
2022-09-28T11:04:34.289Z,27.00
2022-09-28T11:05:46.009Z,28.30
2022-09-28T11:06:37.443Z,28.40
2022-09-28T11:07:36.439Z,29.80
2022-09-28T11:08:36.939Z,28.70
2022-09-28T11:09:37.432Z,29.00
2022-09-28T11:10:37.929Z,30.60
2022-09-28T11:11:38.965Z,31.50
2022-09-28T11:12:39.474Z,30.30
2022-09-28T11:13:40.006Z,28.70
2022-09-28T11:14:42.652Z,30.20
2022-09-28T11:15:41.288Z,29.30
2022-09-28T11:16:41.904Z,28.70
2022-09-28T11:17:42.475Z,29.50
2022-09-28T11:18:42.974Z,29.10
2022-09-28T11:19:43.482Z,29.70
2022-09-28T11:20:45.518Z,28.30
2022-09-28T11:21:44.654Z,30.40
2022-09-28T11:22:45.171Z,28.70
2022-09-28T11:23:45.678Z,31.60
2022-09-28T11:24:46.182Z,30.60
2022-09-28T11:25:46.677Z,31.70
2022-09-28T11:26:47.716Z,31.40
2022-09-28T11:27:48.283Z,30.30
2022-09-28T11:28:48.810Z,30.50
2022-09-28T11:29:49.315Z,30.70
2022-09-28T11:30:49.899Z,31.70
2022-09-28T11:31:50.463Z,34.10
2022-09-28T11:32:50.972Z,33.50
2022-09-28T11:33:51.487Z,35.00
2022-09-28T11:34:59.634Z,32.90
2022-09-28T11:35:52.842Z,32.50
2022-09-28T11:36:53.369Z,32.40
2022-09-28T11:37:53.861Z,32.70
2022-09-28T11:38:54.352Z,33.90
2022-09-28T11:39:55.366Z,32.30
2022-09-28T11:40:55.921Z,32.30
2022-09-28T11:41:56.494Z,31.80
2022-09-28T11:42:57.054Z,30.60
2022-09-28T11:43:57.619Z,30.90
2022-09-28T11:44:58.136Z,33.40
2022-09-28T11:45:58.695Z,35.30
2022-09-28T11:46:59.244Z,35.00
2022-09-28T11:47:59.745Z,36.00
2022-09-28T11:49:00.244Z,34.30
2022-09-28T11:50:00.759Z,36.00
2022-09-28T11:51:01.256Z,33.90
2022-09-28T11:52:01.979Z,34.00
2022-09-28T11:53:02.518Z,34.10
2022-09-28T11:54:03.016Z,35.50
2022-09-28T11:55:03.516Z,36.10
2022-09-28T11:56:08.514Z,35.00
2022-09-28T11:57:04.912Z,39.10
2022-09-28T11:58:05.420Z,37.80
2022-09-28T11:59:05.953Z,38.20
2022-09-28T12:00:06.450Z,33.30
2022-09-28T12:01:07.447Z,32.60
2022-09-28T12:02:08.652Z,33.30
2022-09-28T12:03:09.375Z,34.40
2022-09-28T12:04:10.026Z,36.40
2022-09-28T12:05:10.526Z,37.90
2022-09-28T12:06:11.028Z,34.10
2022-09-28T12:07:11.560Z,33.20
2022-09-28T12:08:12.054Z,32.70
2022-09-28T12:09:12.587Z,33.40
2022-09-28T12:10:13.101Z,32.70
2022-09-28T12:11:13.621Z,30.60
2022-09-28T12:12:14.149Z,31.00
2022-09-28T12:13:14.653Z,31.30
2022-09-28T12:14:15.191Z,32.40
2022-09-28T12:15:15.691Z,34.50
2022-09-28T12:16:53.100Z,32.30
2022-09-28T12:17:20.098Z,32.80
2022-09-28T12:18:17.888Z,33.00
2022-09-28T12:19:18.575Z,34.00
2022-09-28T12:20:19.104Z,35.80
2022-09-28T12:21:19.607Z,35.40
2022-09-28T12:22:20.140Z,36.10
2022-09-28T12:23:20.646Z,38.80
2022-09-28T12:24:21.148Z,37.70
2022-09-28T12:25:21.656Z,39.80
2022-09-28T12:26:22.162Z,40.00
2022-09-28T12:27:22.704Z,39.80
2022-09-28T12:28:23.207Z,40.30
2022-09-28T12:29:23.728Z,41.10
2022-09-28T12:30:24.231Z,44.70
2022-09-28T12:31:24.829Z,44.10
2022-09-28T12:32:25.368Z,42.60
2022-09-28T12:33:25.871Z,41.00
2022-09-28T12:34:26.368Z,41.90
2022-09-28T12:35:26.868Z,44.10
2022-09-28T12:36:27.365Z,46.20
2022-09-28T12:37:28.424Z,47.40
2022-09-28T12:38:28.939Z,47.40
2022-09-28T12:39:46.998Z,46.10
2022-09-28T12:40:30.483Z,45.70
2022-09-28T12:41:31.055Z,47.70
2022-09-28T12:42:31.588Z,46.80
2022-09-28T12:43:32.094Z,47.00
2022-09-28T12:44:32.646Z,47.50
2022-09-28T12:45:42.888Z,51.30
2022-09-28T12:46:34.020Z,51.90
2022-09-28T12:47:34.606Z,53.00
2022-09-28T12:48:35.110Z,51.80
2022-09-28T12:50:39.947Z,50.10
2022-09-28T12:51:37.266Z,51.50
2022-09-28T12:52:37.951Z,51.00
2022-09-28T12:53:38.492Z,52.20
2022-09-28T12:54:38.991Z,52.50
2022-09-28T12:55:39.498Z,52.80
2022-09-28T12:56:40.011Z,53.90
2022-09-28T12:57:40.535Z,53.60
2022-09-28T12:58:41.035Z,51.90
2022-09-28T12:59:41.565Z,51.30
2022-09-28T13:00:42.071Z,49.90
2022-09-28T13:01:42.649Z,50.70
2022-09-28T13:02:43.335Z,52.60
2022-09-28T13:03:43.888Z,54.00